sensor_id;sensor_type;location;lat;lon;timestamp;temperature;humidity
15133;DHT22;7667;51.232;17.110;2024-02-04T00:00:38;7.50;99.90
15133;DHT22;7667;51.232;17.110;2024-02-04T00:03:06;7.40;99.90
15133;DHT22;7667;51.232;17.110;2024-02-04T00:05:33;7.40;99.90
15133;DHT22;7667;51.232;17.110;2024-02-04T00:08:01;7.40;99.90
15133;DHT22;7667;51.232;17.110;2024-02-04T00:10:29;7.30;99.90
15133;DHT22;7667;51.232;17.110;2024-02-04T00:12:57;7.30;99.90
15133;DHT22;7667;51.232;17.110;2024-02-04T00:15:24;7.30;99.90
15133;DHT22;7667;51.232;17.110;2024-02-04T00:17:52;7.30;99.90
15133;DHT22;7667;51.232;17.110;2024-02-04T00:20:20;7.30;99.90
15133;DHT22;7667;51.232;17.110;2024-02-04T00:22:49;7.30;99.90
15133;DHT22;7667;51.232;17.110;2024-02-04T00:25:16;7.30;99.90
15133;DHT22;7667;51.232;17.110;2024-02-04T00:27:46;7.30;99.90
15133;DHT22;7667;51.232;17.110;2024-02-04T00:30:14;7.30;99.90
15133;DHT22;7667;51.232;17.110;2024-02-04T00:32:42;7.40;99.90
15133;DHT22;7667;51.232;17.110;2024-02-04T00:35:10;7.40;99.90
15133;DHT22;7667;51.232;17.110;2024-02-04T00:37:38;7.40;99.90
15133;DHT22;7667;51.232;17.110;2024-02-04T00:40:06;7.40;99.90
15133;DHT22;7667;51.232;17.110;2024-02-04T00:42:34;7.40;99.90
15133;DHT22;7667;51.232;17.110;2024-02-04T00:45:02;7.40;99.90
15133;DHT22;7667;51.232;17.110;2024-02-04T00:47:30;7.30;99.90
15133;DHT22;7667;51.232;17.110;2024-02-04T00:49:58;7.20;99.90
15133;DHT22;7667;51.232;17.110;2024-02-04T00:52:25;7.20;99.90
15133;DHT22;7667;51.232;17.110;2024-02-04T00:54:53;7.20;99.90
15133;DHT22;7667;51.232;17.110;2024-02-04T00:57:21;7.20;99.90
15133;DHT22;7667;51.232;17.110;2024-02-04T00:59:48;7.10;99.90
15133;DHT22;7667;51.232;17.110;2024-02-04T01:02:17;7.10;99.90
15133;DHT22;7667;51.232;17.110;2024-02-04T01:04:45;7.10;99.90
15133;DHT22;7667;51.232;17.110;2024-02-04T01:07:12;7.10;99.90
15133;DHT22;7667;51.232;17.110;2024-02-04T01:09:43;7.10;99.90
15133;DHT22;7667;51.232;17.110;2024-02-04T01:12:11;7.10;99.90
15133;DHT22;7667;51.232;17.110;2024-02-04T01:14:39;7.00;99.90
15133;DHT22;7667;51.232;17.110;2024-02-04T01:17:08;7.00;99.90
15133;DHT22;7667;51.232;17.110;2024-02-04T01:19:51;7.00;99.90
15133;DHT22;7667;51.232;17.110;2024-02-04T01:22:19;7.00;99.90
15133;DHT22;7667;51.232;17.110;2024-02-04T01:24:52;7.00;99.90
15133;DHT22;7667;51.232;17.110;2024-02-04T01:27:20;6.90;99.90
15133;DHT22;7667;51.232;17.110;2024-02-04T01:29:49;6.90;99.90
15133;DHT22;7667;51.232;17.110;2024-02-04T01:32:18;6.80;99.90
15133;DHT22;7667;51.232;17.110;2024-02-04T01:34:46;6.80;99.90
15133;DHT22;7667;51.232;17.110;2024-02-04T01:37:14;6.70;99.90
15133;DHT22;7667;51.232;17.110;2024-02-04T01:39:41;6.70;99.90
15133;DHT22;7667;51.232;17.110;2024-02-04T01:42:12;6.70;99.90
15133;DHT22;7667;51.232;17.110;2024-02-04T01:44:40;6.70;99.90
15133;DHT22;7667;51.232;17.110;2024-02-04T01:47:07;6.70;99.90
15133;DHT22;7667;51.232;17.110;2024-02-04T01:49:37;6.70;99.90
15133;DHT22;7667;51.232;17.110;2024-02-04T01:52:07;6.60;99.90
15133;DHT22;7667;51.232;17.110;2024-02-04T01:54:40;6.60;99.90
15133;DHT22;7667;51.232;17.110;2024-02-04T01:57:10;6.70;99.90
15133;DHT22;7667;51.232;17.110;2024-02-04T01:59:39;6.70;99.90
15133;DHT22;7667;51.232;17.110;2024-02-04T02:02:07;6.80;99.90
15133;DHT22;7667;51.232;17.110;2024-02-04T02:04:35;6.80;99.90
15133;DHT22;7667;51.232;17.110;2024-02-04T02:07:03;6.90;99.90
15133;DHT22;7667;51.232;17.110;2024-02-04T02:09:31;6.90;99.90
15133;DHT22;7667;51.232;17.110;2024-02-04T02:12:12;7.00;99.90
15133;DHT22;7667;51.232;17.110;2024-02-04T02:14:44;7.00;99.90
15133;DHT22;7667;51.232;17.110;2024-02-04T02:17:24;7.00;99.90
15133;DHT22;7667;51.232;17.110;2024-02-04T02:20:07;7.00;99.90
15133;DHT22;7667;51.232;17.110;2024-02-04T02:22:48;7.00;99.90
15133;DHT22;7667;51.232;17.110;2024-02-04T02:25:20;7.10;99.90
15133;DHT22;7667;51.232;17.110;2024-02-04T02:27:49;7.00;99.90
15133;DHT22;7667;51.232;17.110;2024-02-04T02:30:19;7.10;99.90
15133;DHT22;7667;51.232;17.110;2024-02-04T02:32:48;7.10;99.90
15133;DHT22;7667;51.232;17.110;2024-02-04T02:35:17;7.00;99.90
15133;DHT22;7667;51.232;17.110;2024-02-04T02:38:29;7.00;99.90
15133;DHT22;7667;51.232;17.110;2024-02-04T02:41:06;6.90;99.90
15133;DHT22;7667;51.232;17.110;2024-02-04T02:43:39;6.80;99.90
15133;DHT22;7667;51.232;17.110;2024-02-04T02:46:09;6.90;99.90
15133;DHT22;7667;51.232;17.110;2024-02-04T02:48:37;6.80;99.90
15133;DHT22;7667;51.232;17.110;2024-02-04T02:51:05;6.80;99.90
15133;DHT22;7667;51.232;17.110;2024-02-04T02:53:33;6.80;99.90
15133;DHT22;7667;51.232;17.110;2024-02-04T02:56:01;6.80;99.90
15133;DHT22;7667;51.232;17.110;2024-02-04T02:58:28;6.80;99.90
15133;DHT22;7667;51.232;17.110;2024-02-04T03:00:56;6.70;99.90
15133;DHT22;7667;51.232;17.110;2024-02-04T03:03:23;6.80;99.90
15133;DHT22;7667;51.232;17.110;2024-02-04T03:05:51;6.80;99.90
15133;DHT22;7667;51.232;17.110;2024-02-04T03:08:19;6.80;99.90
15133;DHT22;7667;51.232;17.110;2024-02-04T03:10:47;6.80;99.90
15133;DHT22;7667;51.232;17.110;2024-02-04T03:13:14;6.80;99.90
15133;DHT22;7667;51.232;17.110;2024-02-04T03:15:42;6.80;99.90
15133;DHT22;7667;51.232;17.110;2024-02-04T03:18:11;6.80;99.90
15133;DHT22;7667;51.232;17.110;2024-02-04T03:20:38;6.80;99.90
15133;DHT22;7667;51.232;17.110;2024-02-04T03:23:06;6.80;99.90
15133;DHT22;7667;51.232;17.110;2024-02-04T03:25:33;6.80;99.90
15133;DHT22;7667;51.232;17.110;2024-02-04T03:28:01;6.80;99.90
15133;DHT22;7667;51.232;17.110;2024-02-04T03:30:30;6.70;99.90
15133;DHT22;7667;51.232;17.110;2024-02-04T03:32:57;6.70;99.90
15133;DHT22;7667;51.232;17.110;2024-02-04T03:35:25;6.60;99.90
15133;DHT22;7667;51.232;17.110;2024-02-04T03:37:53;6.60;99.90
15133;DHT22;7667;51.232;17.110;2024-02-04T03:40:20;6.50;99.90
15133;DHT22;7667;51.232;17.110;2024-02-04T03:42:51;6.50;99.90
15133;DHT22;7667;51.232;17.110;2024-02-04T03:45:19;6.40;99.90
15133;DHT22;7667;51.232;17.110;2024-02-04T03:47:47;6.40;99.90
15133;DHT22;7667;51.232;17.110;2024-02-04T03:50:14;6.30;99.90
15133;DHT22;7667;51.232;17.110;2024-02-04T03:52:42;6.30;99.90
15133;DHT22;7667;51.232;17.110;2024-02-04T03:55:10;6.30;99.90
15133;DHT22;7667;51.232;17.110;2024-02-04T03:57:38;6.20;99.90
15133;DHT22;7667;51.232;17.110;2024-02-04T04:00:07;6.20;99.90
15133;DHT22;7667;51.232;17.110;2024-02-04T04:02:35;6.10;99.90
15133;DHT22;7667;51.232;17.110;2024-02-04T04:05:03;6.20;99.90
15133;DHT22;7667;51.232;17.110;2024-02-04T04:07:31;6.20;99.90
15133;DHT22;7667;51.232;17.110;2024-02-04T04:09:58;6.20;99.90
15133;DHT22;7667;51.232;17.110;2024-02-04T04:12:26;6.20;99.90
15133;DHT22;7667;51.232;17.110;2024-02-04T04:14:53;6.10;99.90
15133;DHT22;7667;51.232;17.110;2024-02-04T04:17:21;6.00;99.90
15133;DHT22;7667;51.232;17.110;2024-02-04T04:19:48;5.90;99.90
15133;DHT22;7667;51.232;17.110;2024-02-04T04:22:16;6.00;99.90
15133;DHT22;7667;51.232;17.110;2024-02-04T04:24:44;6.00;99.90
15133;DHT22;7667;51.232;17.110;2024-02-04T04:27:11;6.00;99.90
15133;DHT22;7667;51.232;17.110;2024-02-04T04:29:39;6.00;99.90
15133;DHT22;7667;51.232;17.110;2024-02-04T04:32:06;6.00;99.90
15133;DHT22;7667;51.232;17.110;2024-02-04T04:34:34;6.10;99.90
15133;DHT22;7667;51.232;17.110;2024-02-04T04:37:02;6.10;99.90
15133;DHT22;7667;51.232;17.110;2024-02-04T04:39:29;6.10;99.90
15133;DHT22;7667;51.232;17.110;2024-02-04T04:41:57;6.10;99.90
15133;DHT22;7667;51.232;17.110;2024-02-04T04:44:26;6.10;99.90
15133;DHT22;7667;51.232;17.110;2024-02-04T04:46:55;6.20;99.90
15133;DHT22;7667;51.232;17.110;2024-02-04T04:49:23;6.20;99.90
15133;DHT22;7667;51.232;17.110;2024-02-04T04:51:51;6.20;99.90
15133;DHT22;7667;51.232;17.110;2024-02-04T04:54:18;6.00;99.90
15133;DHT22;7667;51.232;17.110;2024-02-04T04:56:47;5.90;99.90
15133;DHT22;7667;51.232;17.110;2024-02-04T04:59:16;5.90;99.90
15133;DHT22;7667;51.232;17.110;2024-02-04T05:01:47;5.80;99.90
15133;DHT22;7667;51.232;17.110;2024-02-04T05:04:16;5.80;99.90
15133;DHT22;7667;51.232;17.110;2024-02-04T05:06:46;5.80;99.90
15133;DHT22;7667;51.232;17.110;2024-02-04T05:09:14;5.80;99.90
15133;DHT22;7667;51.232;17.110;2024-02-04T05:11:41;5.70;99.90
15133;DHT22;7667;51.232;17.110;2024-02-04T05:14:09;5.70;99.90
15133;DHT22;7667;51.232;17.110;2024-02-04T05:16:36;5.70;99.90
15133;DHT22;7667;51.232;17.110;2024-02-04T05:19:04;5.60;99.90
15133;DHT22;7667;51.232;17.110;2024-02-04T05:21:31;5.50;99.90
15133;DHT22;7667;51.232;17.110;2024-02-04T05:23:59;5.40;99.90
15133;DHT22;7667;51.232;17.110;2024-02-04T05:26:27;5.50;99.90
15133;DHT22;7667;51.232;17.110;2024-02-04T05:28:54;5.60;99.90
15133;DHT22;7667;51.232;17.110;2024-02-04T05:31:22;5.50;99.90
15133;DHT22;7667;51.232;17.110;2024-02-04T05:33:51;5.50;99.90
15133;DHT22;7667;51.232;17.110;2024-02-04T05:36:20;5.50;99.90
15133;DHT22;7667;51.232;17.110;2024-02-04T05:38:47;5.40;99.90
15133;DHT22;7667;51.232;17.110;2024-02-04T05:41:16;5.40;99.90
15133;DHT22;7667;51.232;17.110;2024-02-04T05:43:44;5.40;99.90
15133;DHT22;7667;51.232;17.110;2024-02-04T05:46:13;5.40;99.90
15133;DHT22;7667;51.232;17.110;2024-02-04T05:48:42;5.40;99.90
15133;DHT22;7667;51.232;17.110;2024-02-04T05:51:12;5.40;99.90
15133;DHT22;7667;51.232;17.110;2024-02-04T05:53:40;5.40;99.90
15133;DHT22;7667;51.232;17.110;2024-02-04T05:56:07;5.30;99.90
15133;DHT22;7667;51.232;17.110;2024-02-04T05:58:35;5.30;99.90
15133;DHT22;7667;51.232;17.110;2024-02-04T06:01:03;5.30;99.90
15133;DHT22;7667;51.232;17.110;2024-02-04T06:03:30;5.30;99.90
15133;DHT22;7667;51.232;17.110;2024-02-04T06:05:58;5.30;99.90
15133;DHT22;7667;51.232;17.110;2024-02-04T06:08:25;5.40;99.90
15133;DHT22;7667;51.232;17.110;2024-02-04T06:10:53;5.40;99.90
15133;DHT22;7667;51.232;17.110;2024-02-04T06:13:20;5.30;99.90
15133;DHT22;7667;51.232;17.110;2024-02-04T06:15:48;5.30;99.90
15133;DHT22;7667;51.232;17.110;2024-02-04T06:18:16;5.30;99.90
15133;DHT22;7667;51.232;17.110;2024-02-04T06:20:44;5.30;99.90
15133;DHT22;7667;51.232;17.110;2024-02-04T06:23:12;5.30;99.90
15133;DHT22;7667;51.232;17.110;2024-02-04T06:25:40;5.30;99.90
15133;DHT22;7667;51.232;17.110;2024-02-04T06:28:07;5.30;99.90
15133;DHT22;7667;51.232;17.110;2024-02-04T06:30:35;5.30;99.90
15133;DHT22;7667;51.232;17.110;2024-02-04T06:33:03;5.30;99.90
15133;DHT22;7667;51.232;17.110;2024-02-04T06:35:32;5.30;99.90
15133;DHT22;7667;51.232;17.110;2024-02-04T06:38:00;5.40;99.90
15133;DHT22;7667;51.232;17.110;2024-02-04T06:40:28;5.30;99.90
15133;DHT22;7667;51.232;17.110;2024-02-04T06:42:55;5.30;99.90
15133;DHT22;7667;51.232;17.110;2024-02-04T06:45:23;5.30;99.90
15133;DHT22;7667;51.232;17.110;2024-02-04T06:47:50;5.30;99.90
15133;DHT22;7667;51.232;17.110;2024-02-04T06:50:18;5.30;99.90
15133;DHT22;7667;51.232;17.110;2024-02-04T06:52:46;5.30;99.90
15133;DHT22;7667;51.232;17.110;2024-02-04T06:55:14;5.30;99.90
15133;DHT22;7667;51.232;17.110;2024-02-04T06:57:42;5.30;99.90
15133;DHT22;7667;51.232;17.110;2024-02-04T07:00:10;5.30;99.90
15133;DHT22;7667;51.232;17.110;2024-02-04T07:02:38;5.30;99.90
15133;DHT22;7667;51.232;17.110;2024-02-04T07:05:06;5.30;99.90
15133;DHT22;7667;51.232;17.110;2024-02-04T07:07:34;5.30;99.90
15133;DHT22;7667;51.232;17.110;2024-02-04T07:10:02;5.20;99.90
15133;DHT22;7667;51.232;17.110;2024-02-04T07:12:30;5.20;99.90
15133;DHT22;7667;51.232;17.110;2024-02-04T07:14:57;5.10;99.90
15133;DHT22;7667;51.232;17.110;2024-02-04T07:17:26;5.10;99.90
15133;DHT22;7667;51.232;17.110;2024-02-04T07:19:54;5.10;99.90
15133;DHT22;7667;51.232;17.110;2024-02-04T07:22:21;5.10;99.90
15133;DHT22;7667;51.232;17.110;2024-02-04T07:24:49;5.10;99.90
15133;DHT22;7667;51.232;17.110;2024-02-04T07:27:16;5.10;99.90
15133;DHT22;7667;51.232;17.110;2024-02-04T07:29:45;5.10;99.90
15133;DHT22;7667;51.232;17.110;2024-02-04T07:32:15;5.10;99.90
15133;DHT22;7667;51.232;17.110;2024-02-04T07:34:42;5.10;99.90
15133;DHT22;7667;51.232;17.110;2024-02-04T07:37:10;5.10;99.90
15133;DHT22;7667;51.232;17.110;2024-02-04T07:39:38;5.10;99.90
15133;DHT22;7667;51.232;17.110;2024-02-04T07:42:05;5.20;99.90
15133;DHT22;7667;51.232;17.110;2024-02-04T07:44:33;5.30;99.90
15133;DHT22;7667;51.232;17.110;2024-02-04T07:47:00;5.30;99.90
15133;DHT22;7667;51.232;17.110;2024-02-04T07:49:28;5.30;99.90
15133;DHT22;7667;51.232;17.110;2024-02-04T07:51:56;5.40;99.90
15133;DHT22;7667;51.232;17.110;2024-02-04T07:54:23;5.40;99.90
15133;DHT22;7667;51.232;17.110;2024-02-04T07:56:51;5.40;99.90
15133;DHT22;7667;51.232;17.110;2024-02-04T07:59:18;5.50;99.90
15133;DHT22;7667;51.232;17.110;2024-02-04T08:01:46;5.40;99.90
15133;DHT22;7667;51.232;17.110;2024-02-04T08:04:13;5.40;99.90
15133;DHT22;7667;51.232;17.110;2024-02-04T08:06:42;5.50;99.90
15133;DHT22;7667;51.232;17.110;2024-02-04T08:09:10;5.60;99.90
15133;DHT22;7667;51.232;17.110;2024-02-04T08:11:38;5.60;99.90
15133;DHT22;7667;51.232;17.110;2024-02-04T08:14:07;5.70;99.90
15133;DHT22;7667;51.232;17.110;2024-02-04T08:16:34;5.80;99.90
15133;DHT22;7667;51.232;17.110;2024-02-04T08:19:02;5.90;99.90
15133;DHT22;7667;51.232;17.110;2024-02-04T08:21:33;6.00;99.90
15133;DHT22;7667;51.232;17.110;2024-02-04T08:24:00;6.10;99.90
15133;DHT22;7667;51.232;17.110;2024-02-04T08:26:28;6.20;99.90
15133;DHT22;7667;51.232;17.110;2024-02-04T08:28:55;6.20;99.90
15133;DHT22;7667;51.232;17.110;2024-02-04T08:31:23;6.40;99.90
15133;DHT22;7667;51.232;17.110;2024-02-04T08:33:51;6.40;99.90
15133;DHT22;7667;51.232;17.110;2024-02-04T08:36:20;6.50;99.90
15133;DHT22;7667;51.232;17.110;2024-02-04T08:38:49;6.60;99.90
15133;DHT22;7667;51.232;17.110;2024-02-04T08:41:17;6.70;99.90
15133;DHT22;7667;51.232;17.110;2024-02-04T08:43:44;6.80;99.90
15133;DHT22;7667;51.232;17.110;2024-02-04T08:46:13;7.00;99.90
15133;DHT22;7667;51.232;17.110;2024-02-04T08:48:41;7.10;99.90
15133;DHT22;7667;51.232;17.110;2024-02-04T08:51:11;7.20;99.90
15133;DHT22;7667;51.232;17.110;2024-02-04T08:53:40;7.40;99.90
15133;DHT22;7667;51.232;17.110;2024-02-04T08:56:08;7.50;99.90
15133;DHT22;7667;51.232;17.110;2024-02-04T08:58:35;7.80;99.90
15133;DHT22;7667;51.232;17.110;2024-02-04T09:01:06;7.70;99.90
15133;DHT22;7667;51.232;17.110;2024-02-04T09:03:34;7.90;99.90
15133;DHT22;7667;51.232;17.110;2024-02-04T09:06:02;7.80;99.90
15133;DHT22;7667;51.232;17.110;2024-02-04T09:08:30;7.80;99.90
15133;DHT22;7667;51.232;17.110;2024-02-04T09:10:58;7.80;99.90
15133;DHT22;7667;51.232;17.110;2024-02-04T09:13:25;7.60;99.90
15133;DHT22;7667;51.232;17.110;2024-02-04T09:15:53;7.60;99.90
15133;DHT22;7667;51.232;17.110;2024-02-04T09:18:21;7.70;99.90
15133;DHT22;7667;51.232;17.110;2024-02-04T09:20:49;7.70;99.90
15133;DHT22;7667;51.232;17.110;2024-02-04T09:23:17;7.70;99.90
15133;DHT22;7667;51.232;17.110;2024-02-04T09:25:44;7.70;99.90
15133;DHT22;7667;51.232;17.110;2024-02-04T09:28:12;7.90;99.90
15133;DHT22;7667;51.232;17.110;2024-02-04T09:30:40;7.90;99.90
15133;DHT22;7667;51.232;17.110;2024-02-04T09:33:08;8.00;99.90
15133;DHT22;7667;51.232;17.110;2024-02-04T09:35:36;8.10;99.90
15133;DHT22;7667;51.232;17.110;2024-02-04T09:38:04;8.10;99.90
15133;DHT22;7667;51.232;17.110;2024-02-04T09:40:36;8.10;99.90
15133;DHT22;7667;51.232;17.110;2024-02-04T09:43:04;8.30;99.90
15133;DHT22;7667;51.232;17.110;2024-02-04T09:45:33;8.30;99.90
15133;DHT22;7667;51.232;17.110;2024-02-04T09:48:01;8.30;99.90
15133;DHT22;7667;51.232;17.110;2024-02-04T09:50:31;8.20;99.90
15133;DHT22;7667;51.232;17.110;2024-02-04T09:52:59;8.20;99.90
15133;DHT22;7667;51.232;17.110;2024-02-04T09:55:29;8.20;99.90
15133;DHT22;7667;51.232;17.110;2024-02-04T09:57:58;8.10;99.90
15133;DHT22;7667;51.232;17.110;2024-02-04T10:00:27;8.00;99.90
15133;DHT22;7667;51.232;17.110;2024-02-04T10:02:57;8.10;99.90
15133;DHT22;7667;51.232;17.110;2024-02-04T10:05:25;8.10;99.90
15133;DHT22;7667;51.232;17.110;2024-02-04T10:07:53;8.10;99.90
15133;DHT22;7667;51.232;17.110;2024-02-04T10:10:21;8.10;99.90
15133;DHT22;7667;51.232;17.110;2024-02-04T10:12:49;8.10;99.90
15133;DHT22;7667;51.232;17.110;2024-02-04T10:15:16;8.20;99.90
15133;DHT22;7667;51.232;17.110;2024-02-04T10:17:47;8.20;99.90
15133;DHT22;7667;51.232;17.110;2024-02-04T10:20:15;8.30;99.90
15133;DHT22;7667;51.232;17.110;2024-02-04T10:22:46;8.10;99.90
15133;DHT22;7667;51.232;17.110;2024-02-04T10:25:14;8.20;99.90
15133;DHT22;7667;51.232;17.110;2024-02-04T10:27:43;8.30;99.90
15133;DHT22;7667;51.232;17.110;2024-02-04T10:30:13;8.30;99.90
15133;DHT22;7667;51.232;17.110;2024-02-04T10:32:42;8.20;99.90
15133;DHT22;7667;51.232;17.110;2024-02-04T10:35:09;8.20;99.90
15133;DHT22;7667;51.232;17.110;2024-02-04T10:37:37;8.30;99.90
15133;DHT22;7667;51.232;17.110;2024-02-04T10:40:05;8.20;99.90
15133;DHT22;7667;51.232;17.110;2024-02-04T10:42:35;8.30;99.90
15133;DHT22;7667;51.232;17.110;2024-02-04T10:45:08;8.30;99.90
15133;DHT22;7667;51.232;17.110;2024-02-04T10:47:40;8.30;99.90
15133;DHT22;7667;51.232;17.110;2024-02-04T10:50:08;8.20;99.90
15133;DHT22;7667;51.232;17.110;2024-02-04T10:52:38;8.10;99.90
15133;DHT22;7667;51.232;17.110;2024-02-04T10:55:10;8.20;99.90
15133;DHT22;7667;51.232;17.110;2024-02-04T10:57:39;8.30;99.90
15133;DHT22;7667;51.232;17.110;2024-02-04T11:00:08;8.30;99.90
15133;DHT22;7667;51.232;17.110;2024-02-04T11:02:42;8.30;99.90
15133;DHT22;7667;51.232;17.110;2024-02-04T11:05:14;8.50;99.90
15133;DHT22;7667;51.232;17.110;2024-02-04T11:07:45;8.60;99.90
15133;DHT22;7667;51.232;17.110;2024-02-04T11:10:13;8.60;99.90
15133;DHT22;7667;51.232;17.110;2024-02-04T11:12:42;8.50;99.90
15133;DHT22;7667;51.232;17.110;2024-02-04T11:15:14;8.40;99.90
15133;DHT22;7667;51.232;17.110;2024-02-04T11:23:34;8.60;99.90
15133;DHT22;7667;51.232;17.110;2024-02-04T11:26:05;8.60;99.90
15133;DHT22;7667;51.232;17.110;2024-02-04T11:28:33;8.70;99.90
15133;DHT22;7667;51.232;17.110;2024-02-04T11:31:01;8.90;99.90
15133;DHT22;7667;51.232;17.110;2024-02-04T11:33:29;8.80;99.90
15133;DHT22;7667;51.232;17.110;2024-02-04T11:36:06;8.90;99.90
15133;DHT22;7667;51.232;17.110;2024-02-04T11:38:37;9.00;99.90
15133;DHT22;7667;51.232;17.110;2024-02-04T11:41:06;9.00;99.90
15133;DHT22;7667;51.232;17.110;2024-02-04T11:43:36;9.00;99.90
15133;DHT22;7667;51.232;17.110;2024-02-04T11:46:16;8.90;99.90
15133;DHT22;7667;51.232;17.110;2024-02-04T11:48:53;8.80;99.90
15133;DHT22;7667;51.232;17.110;2024-02-04T11:51:22;8.70;99.90
15133;DHT22;7667;51.232;17.110;2024-02-04T11:53:52;8.70;99.90
15133;DHT22;7667;51.232;17.110;2024-02-04T11:56:19;8.70;99.90
15133;DHT22;7667;51.232;17.110;2024-02-04T11:58:47;8.80;99.90
15133;DHT22;7667;51.232;17.110;2024-02-04T12:01:15;8.80;99.90
15133;DHT22;7667;51.232;17.110;2024-02-04T12:03:43;8.80;99.90
15133;DHT22;7667;51.232;17.110;2024-02-04T12:06:11;8.80;99.90
15133;DHT22;7667;51.232;17.110;2024-02-04T12:08:42;8.80;99.90
15133;DHT22;7667;51.232;17.110;2024-02-04T12:11:10;8.80;99.90
15133;DHT22;7667;51.232;17.110;2024-02-04T12:13:39;8.80;99.90
15133;DHT22;7667;51.232;17.110;2024-02-04T12:16:09;8.80;99.90
15133;DHT22;7667;51.232;17.110;2024-02-04T12:18:36;8.80;99.90
15133;DHT22;7667;51.232;17.110;2024-02-04T12:21:15;8.80;99.90
15133;DHT22;7667;51.232;17.110;2024-02-04T12:23:43;8.80;99.90
15133;DHT22;7667;51.232;17.110;2024-02-04T12:26:11;8.90;99.90
15133;DHT22;7667;51.232;17.110;2024-02-04T12:28:39;9.10;99.90
15133;DHT22;7667;51.232;17.110;2024-02-04T12:31:07;9.20;99.90
15133;DHT22;7667;51.232;17.110;2024-02-04T12:33:34;9.20;99.90
15133;DHT22;7667;51.232;17.110;2024-02-04T12:36:05;9.10;99.90
15133;DHT22;7667;51.232;17.110;2024-02-04T12:38:33;9.00;99.90
15133;DHT22;7667;51.232;17.110;2024-02-04T12:41:02;9.10;99.90
15133;DHT22;7667;51.232;17.110;2024-02-04T12:43:30;9.10;99.90
15133;DHT22;7667;51.232;17.110;2024-02-04T12:45:57;9.20;99.90
15133;DHT22;7667;51.232;17.110;2024-02-04T12:48:27;9.30;99.90
15133;DHT22;7667;51.232;17.110;2024-02-04T12:50:55;9.30;99.90
15133;DHT22;7667;51.232;17.110;2024-02-04T12:53:22;9.40;99.90
15133;DHT22;7667;51.232;17.110;2024-02-04T12:55:58;9.40;99.90
15133;DHT22;7667;51.232;17.110;2024-02-04T12:58:27;9.40;99.90
15133;DHT22;7667;51.232;17.110;2024-02-04T13:01:01;9.50;99.90
15133;DHT22;7667;51.232;17.110;2024-02-04T13:03:30;9.60;99.90
15133;DHT22;7667;51.232;17.110;2024-02-04T13:05:58;9.60;99.90
15133;DHT22;7667;51.232;17.110;2024-02-04T13:08:26;9.70;99.90
15133;DHT22;7667;51.232;17.110;2024-02-04T13:10:57;9.60;99.90
15133;DHT22;7667;51.232;17.110;2024-02-04T13:13:25;9.60;99.90
15133;DHT22;7667;51.232;17.110;2024-02-04T13:15:54;9.50;99.90
15133;DHT22;7667;51.232;17.110;2024-02-04T13:18:23;9.50;99.90
15133;DHT22;7667;51.232;17.110;2024-02-04T13:20:51;9.50;99.90
15133;DHT22;7667;51.232;17.110;2024-02-04T13:23:19;9.60;99.90
15133;DHT22;7667;51.232;17.110;2024-02-04T13:25:46;9.50;99.90
15133;DHT22;7667;51.232;17.110;2024-02-04T13:28:14;9.50;99.90
15133;DHT22;7667;51.232;17.110;2024-02-04T13:30:42;9.60;99.90
15133;DHT22;7667;51.232;17.110;2024-02-04T13:33:09;9.70;99.90
15133;DHT22;7667;51.232;17.110;2024-02-04T13:35:37;9.60;99.90
15133;DHT22;7667;51.232;17.110;2024-02-04T13:38:05;9.60;99.90
15133;DHT22;7667;51.232;17.110;2024-02-04T13:40:36;9.60;99.90
15133;DHT22;7667;51.232;17.110;2024-02-04T13:43:04;9.50;99.90
15133;DHT22;7667;51.232;17.110;2024-02-04T13:45:31;9.60;99.90
15133;DHT22;7667;51.232;17.110;2024-02-04T13:47:59;9.50;99.90
15133;DHT22;7667;51.232;17.110;2024-02-04T13:50:27;9.50;99.90
15133;DHT22;7667;51.232;17.110;2024-02-04T13:52:54;9.50;99.90
15133;DHT22;7667;51.232;17.110;2024-02-04T13:55:24;9.50;99.90
15133;DHT22;7667;51.232;17.110;2024-02-04T13:57:51;9.40;99.90
15133;DHT22;7667;51.232;17.110;2024-02-04T14:00:19;9.40;99.90
15133;DHT22;7667;51.232;17.110;2024-02-04T14:02:47;9.40;99.90
15133;DHT22;7667;51.232;17.110;2024-02-04T14:05:14;9.40;99.90
15133;DHT22;7667;51.232;17.110;2024-02-04T14:07:42;9.50;99.90
15133;DHT22;7667;51.232;17.110;2024-02-04T14:10:10;9.40;99.90
15133;DHT22;7667;51.232;17.110;2024-02-04T14:12:39;9.40;99.90
15133;DHT22;7667;51.232;17.110;2024-02-04T14:15:09;9.50;99.90
15133;DHT22;7667;51.232;17.110;2024-02-04T14:17:36;9.50;99.90
15133;DHT22;7667;51.232;17.110;2024-02-04T14:20:06;9.50;99.90
15133;DHT22;7667;51.232;17.110;2024-02-04T14:22:35;9.50;99.90
15133;DHT22;7667;51.232;17.110;2024-02-04T14:25:02;9.40;99.90
15133;DHT22;7667;51.232;17.110;2024-02-04T14:27:30;9.40;99.90
15133;DHT22;7667;51.232;17.110;2024-02-04T14:29:58;9.40;99.90
15133;DHT22;7667;51.232;17.110;2024-02-04T14:32:25;9.40;99.90
15133;DHT22;7667;51.232;17.110;2024-02-04T14:34:53;9.40;99.90
15133;DHT22;7667;51.232;17.110;2024-02-04T14:37:21;9.40;99.90
15133;DHT22;7667;51.232;17.110;2024-02-04T14:39:49;9.30;99.90
15133;DHT22;7667;51.232;17.110;2024-02-04T14:42:17;9.30;99.90
15133;DHT22;7667;51.232;17.110;2024-02-04T14:44:45;9.20;99.90
15133;DHT22;7667;51.232;17.110;2024-02-04T14:47:13;9.20;99.90
15133;DHT22;7667;51.232;17.110;2024-02-04T14:49:40;9.10;99.90
15133;DHT22;7667;51.232;17.110;2024-02-04T14:52:08;9.10;99.90
15133;DHT22;7667;51.232;17.110;2024-02-04T14:54:36;9.00;99.90
15133;DHT22;7667;51.232;17.110;2024-02-04T14:57:04;9.00;99.90
15133;DHT22;7667;51.232;17.110;2024-02-04T14:59:32;9.10;99.90
15133;DHT22;7667;51.232;17.110;2024-02-04T15:02:04;9.00;99.90
15133;DHT22;7667;51.232;17.110;2024-02-04T15:04:36;9.00;99.90
15133;DHT22;7667;51.232;17.110;2024-02-04T15:07:05;9.00;99.90
15133;DHT22;7667;51.232;17.110;2024-02-04T15:09:34;8.90;99.90
15133;DHT22;7667;51.232;17.110;2024-02-04T15:12:02;8.90;99.90
15133;DHT22;7667;51.232;17.110;2024-02-04T15:14:30;8.80;99.90
15133;DHT22;7667;51.232;17.110;2024-02-04T15:16:58;8.80;99.90
15133;DHT22;7667;51.232;17.110;2024-02-04T15:19:28;8.80;99.90
15133;DHT22;7667;51.232;17.110;2024-02-04T15:21:57;8.80;99.90
15133;DHT22;7667;51.232;17.110;2024-02-04T15:24:25;8.70;99.90
15133;DHT22;7667;51.232;17.110;2024-02-04T15:26:53;8.70;99.90
15133;DHT22;7667;51.232;17.110;2024-02-04T15:29:21;8.70;99.90
15133;DHT22;7667;51.232;17.110;2024-02-04T15:31:49;8.70;99.90
15133;DHT22;7667;51.232;17.110;2024-02-04T15:34:17;8.70;99.90
15133;DHT22;7667;51.232;17.110;2024-02-04T15:36:45;8.70;99.90
15133;DHT22;7667;51.232;17.110;2024-02-04T15:39:13;8.80;99.90
15133;DHT22;7667;51.232;17.110;2024-02-04T15:41:41;8.70;99.90
15133;DHT22;7667;51.232;17.110;2024-02-04T15:44:09;8.80;99.90
15133;DHT22;7667;51.232;17.110;2024-02-04T15:46:37;8.80;99.90
15133;DHT22;7667;51.232;17.110;2024-02-04T15:49:06;8.70;99.90
15133;DHT22;7667;51.232;17.110;2024-02-04T15:51:39;8.70;99.90
15133;DHT22;7667;51.232;17.110;2024-02-04T15:54:07;8.50;99.90
15133;DHT22;7667;51.232;17.110;2024-02-04T15:56:41;8.40;99.90
15133;DHT22;7667;51.232;17.110;2024-02-04T15:59:13;8.50;99.90